sensor_id;sensor_type;location;lat;lon;timestamp;P1;durP1;ratioP1;P2;durP2;ratioP2
76113;SDS011;64845;53.086;5.834;2023-07-13T00:02:16;4.85;;;1.15;;
76113;SDS011;64845;53.086;5.834;2023-07-13T00:04:42;5.63;;;1.55;;
76113;SDS011;64845;53.086;5.834;2023-07-13T00:07:07;5.07;;;1.23;;
76113;SDS011;64845;53.086;5.834;2023-07-13T00:09:33;5.07;;;1.40;;
76113;SDS011;64845;53.086;5.834;2023-07-13T00:11:59;10.52;;;1.60;;
76113;SDS011;64845;53.086;5.834;2023-07-13T00:14:25;6.32;;;1.23;;
76113;SDS011;64845;53.086;5.834;2023-07-13T00:16:52;4.50;;;1.00;;
76113;SDS011;64845;53.086;5.834;2023-07-13T00:19:18;6.22;;;1.30;;
76113;SDS011;64845;53.086;5.834;2023-07-13T00:21:44;5.88;;;1.30;;
76113;SDS011;64845;53.086;5.834;2023-07-13T00:24:11;4.20;;;1.30;;
76113;SDS011;64845;53.086;5.834;2023-07-13T00:26:38;3.90;;;0.95;;
76113;SDS011;64845;53.086;5.834;2023-07-13T00:29:04;4.05;;;1.20;;
76113;SDS011;64845;53.086;5.834;2023-07-13T00:31:33;4.72;;;1.20;;
76113;SDS011;64845;53.086;5.834;2023-07-13T00:33:59;4.88;;;1.23;;
76113;SDS011;64845;53.086;5.834;2023-07-13T00:36:25;3.15;;;1.25;;
76113;SDS011;64845;53.086;5.834;2023-07-13T00:38:51;6.20;;;1.23;;
76113;SDS011;64845;53.086;5.834;2023-07-13T00:41:16;5.57;;;1.45;;
76113;SDS011;64845;53.086;5.834;2023-07-13T00:43:42;3.78;;;1.10;;
76113;SDS011;64845;53.086;5.834;2023-07-13T00:46:12;5.70;;;1.00;;
76113;SDS011;64845;53.086;5.834;2023-07-13T00:48:40;4.80;;;1.17;;
76113;SDS011;64845;53.086;5.834;2023-07-13T00:51:06;4.55;;;1.20;;
76113;SDS011;64845;53.086;5.834;2023-07-13T00:53:32;3.72;;;1.10;;
76113;SDS011;64845;53.086;5.834;2023-07-13T00:55:59;6.05;;;1.02;;
76113;SDS011;64845;53.086;5.834;2023-07-13T00:58:25;5.57;;;1.02;;
76113;SDS011;64845;53.086;5.834;2023-07-13T01:00:52;4.10;;;1.15;;
76113;SDS011;64845;53.086;5.834;2023-07-13T01:03:18;11.13;;;1.40;;
76113;SDS011;64845;53.086;5.834;2023-07-13T01:05:44;5.45;;;1.10;;
76113;SDS011;64845;53.086;5.834;2023-07-13T01:08:13;7.63;;;1.33;;
76113;SDS011;64845;53.086;5.834;2023-07-13T01:10:38;4.95;;;1.33;;
76113;SDS011;64845;53.086;5.834;2023-07-13T01:13:08;7.05;;;1.20;;
76113;SDS011;64845;53.086;5.834;2023-07-13T01:15:36;5.43;;;1.10;;
76113;SDS011;64845;53.086;5.834;2023-07-13T01:18:02;4.57;;;0.90;;
76113;SDS011;64845;53.086;5.834;2023-07-13T01:20:30;9.27;;;1.60;;
76113;SDS011;64845;53.086;5.834;2023-07-13T01:22:56;6.30;;;1.33;;
76113;SDS011;64845;53.086;5.834;2023-07-13T01:25:21;5.40;;;1.30;;
76113;SDS011;64845;53.086;5.834;2023-07-13T01:27:47;6.28;;;1.30;;
76113;SDS011;64845;53.086;5.834;2023-07-13T01:30:12;2.67;;;1.13;;
76113;SDS011;64845;53.086;5.834;2023-07-13T01:32:38;4.88;;;1.20;;
76113;SDS011;64845;53.086;5.834;2023-07-13T01:35:06;7.63;;;1.40;;
76113;SDS011;64845;53.086;5.834;2023-07-13T01:37:32;7.80;;;1.70;;
76113;SDS011;64845;53.086;5.834;2023-07-13T01:39:58;4.20;;;1.30;;
76113;SDS011;64845;53.086;5.834;2023-07-13T01:42:24;4.50;;;1.02;;
76113;SDS011;64845;53.086;5.834;2023-07-13T01:44:49;5.05;;;1.40;;
76113;SDS011;64845;53.086;5.834;2023-07-13T01:47:15;8.15;;;1.45;;
76113;SDS011;64845;53.086;5.834;2023-07-13T01:49:40;6.57;;;1.17;;
76113;SDS011;64845;53.086;5.834;2023-07-13T01:52:06;4.93;;;1.40;;
76113;SDS011;64845;53.086;5.834;2023-07-13T01:54:32;6.97;;;1.60;;
76113;SDS011;64845;53.086;5.834;2023-07-13T01:56:59;11.95;;;1.90;;
76113;SDS011;64845;53.086;5.834;2023-07-13T01:59:24;6.47;;;1.73;;
76113;SDS011;64845;53.086;5.834;2023-07-13T02:01:50;11.48;;;2.03;;
76113;SDS011;64845;53.086;5.834;2023-07-13T02:04:15;8.50;;;1.77;;
76113;SDS011;64845;53.086;5.834;2023-07-13T02:06:40;7.20;;;1.63;;
76113;SDS011;64845;53.086;5.834;2023-07-13T02:09:06;8.77;;;1.70;;
76113;SDS011;64845;53.086;5.834;2023-07-13T02:11:32;9.55;;;2.08;;
76113;SDS011;64845;53.086;5.834;2023-07-13T02:14:01;13.70;;;2.35;;
76113;SDS011;64845;53.086;5.834;2023-07-13T02:16:28;14.73;;;2.40;;
76113;SDS011;64845;53.086;5.834;2023-07-13T02:18:54;9.13;;;2.15;;
76113;SDS011;64845;53.086;5.834;2023-07-13T02:21:20;16.65;;;2.17;;
76113;SDS011;64845;53.086;5.834;2023-07-13T02:23:46;12.48;;;2.83;;
76113;SDS011;64845;53.086;5.834;2023-07-13T02:26:12;15.40;;;2.22;;
76113;SDS011;64845;53.086;5.834;2023-07-13T02:28:38;24.17;;;2.67;;
76113;SDS011;64845;53.086;5.834;2023-07-13T02:31:13;18.85;;;3.15;;
76113;SDS011;64845;53.086;5.834;2023-07-13T02:33:40;17.60;;;2.75;;
76113;SDS011;64845;53.086;5.834;2023-07-13T02:36:06;16.55;;;2.50;;
76113;SDS011;64845;53.086;5.834;2023-07-13T02:38:32;13.43;;;2.75;;
76113;SDS011;64845;53.086;5.834;2023-07-13T02:40:59;18.35;;;2.92;;
76113;SDS011;64845;53.086;5.834;2023-07-13T02:43:25;12.40;;;2.22;;
76113;SDS011;64845;53.086;5.834;2023-07-13T02:45:50;15.90;;;3.30;;
76113;SDS011;64845;53.086;5.834;2023-07-13T02:48:16;14.75;;;2.63;;
76113;SDS011;64845;53.086;5.834;2023-07-13T02:50:41;14.05;;;2.75;;
76113;SDS011;64845;53.086;5.834;2023-07-13T02:53:07;17.42;;;2.75;;
76113;SDS011;64845;53.086;5.834;2023-07-13T02:55:32;12.07;;;2.67;;
76113;SDS011;64845;53.086;5.834;2023-07-13T02:57:58;24.45;;;3.35;;
76113;SDS011;64845;53.086;5.834;2023-07-13T03:00:23;18.92;;;3.13;;
76113;SDS011;64845;53.086;5.834;2023-07-13T03:02:49;14.48;;;3.00;;
76113;SDS011;64845;53.086;5.834;2023-07-13T03:05:14;10.65;;;2.80;;
76113;SDS011;64845;53.086;5.834;2023-07-13T03:07:40;20.48;;;3.22;;
76113;SDS011;64845;53.086;5.834;2023-07-13T03:10:05;17.10;;;3.40;;
76113;SDS011;64845;53.086;5.834;2023-07-13T03:12:31;15.77;;;3.28;;
76113;SDS011;64845;53.086;5.834;2023-07-13T03:14:57;14.30;;;2.95;;
76113;SDS011;64845;53.086;5.834;2023-07-13T03:17:22;11.90;;;2.80;;
76113;SDS011;64845;53.086;5.834;2023-07-13T03:19:48;18.50;;;3.15;;
76113;SDS011;64845;53.086;5.834;2023-07-13T03:22:15;14.23;;;3.42;;
76113;SDS011;64845;53.086;5.834;2023-07-13T03:24:41;16.60;;;3.55;;
76113;SDS011;64845;53.086;5.834;2023-07-13T03:27:07;18.88;;;3.53;;
76113;SDS011;64845;53.086;5.834;2023-07-13T03:29:32;14.15;;;3.28;;
76113;SDS011;64845;53.086;5.834;2023-07-13T03:31:58;20.88;;;3.55;;
76113;SDS011;64845;53.086;5.834;2023-07-13T03:34:23;15.07;;;3.13;;
76113;SDS011;64845;53.086;5.834;2023-07-13T03:36:49;15.32;;;2.95;;
76113;SDS011;64845;53.086;5.834;2023-07-13T03:39:14;17.20;;;3.00;;
76113;SDS011;64845;53.086;5.834;2023-07-13T03:41:39;15.27;;;2.85;;
76113;SDS011;64845;53.086;5.834;2023-07-13T03:44:05;14.63;;;2.80;;
76113;SDS011;64845;53.086;5.834;2023-07-13T03:46:31;12.93;;;2.55;;
76113;SDS011;64845;53.086;5.834;2023-07-13T03:48:58;12.50;;;2.72;;
76113;SDS011;64845;53.086;5.834;2023-07-13T03:51:24;15.35;;;2.63;;
76113;SDS011;64845;53.086;5.834;2023-07-13T03:53:49;11.43;;;2.47;;
76113;SDS011;64845;53.086;5.834;2023-07-13T03:56:16;17.00;;;2.67;;
76113;SDS011;64845;53.086;5.834;2023-07-13T03:58:43;18.77;;;3.00;;
76113;SDS011;64845;53.086;5.834;2023-07-13T04:01:10;13.18;;;3.05;;
76113;SDS011;64845;53.086;5.834;2023-07-13T04:03:37;10.95;;;2.50;;
76113;SDS011;64845;53.086;5.834;2023-07-13T04:06:04;10.65;;;2.67;;
76113;SDS011;64845;53.086;5.834;2023-07-13T04:08:33;9.88;;;2.63;;
76113;SDS011;64845;53.086;5.834;2023-07-13T04:11:00;17.27;;;3.08;;
76113;SDS011;64845;53.086;5.834;2023-07-13T04:13:27;13.23;;;2.30;;
76113;SDS011;64845;53.086;5.834;2023-07-13T04:15:53;11.50;;;2.45;;
76113;SDS011;64845;53.086;5.834;2023-07-13T04:18:19;9.35;;;2.33;;
76113;SDS011;64845;53.086;5.834;2023-07-13T04:20:45;15.65;;;2.97;;
76113;SDS011;64845;53.086;5.834;2023-07-13T04:23:15;16.17;;;2.53;;
76113;SDS011;64845;53.086;5.834;2023-07-13T04:25:45;8.20;;;2.20;;
76113;SDS011;64845;53.086;5.834;2023-07-13T04:28:11;20.10;;;2.80;;
76113;SDS011;64845;53.086;5.834;2023-07-13T04:30:36;10.23;;;2.80;;
76113;SDS011;64845;53.086;5.834;2023-07-13T04:33:02;11.90;;;2.70;;
76113;SDS011;64845;53.086;5.834;2023-07-13T04:35:27;10.80;;;2.58;;
76113;SDS011;64845;53.086;5.834;2023-07-13T04:37:52;15.30;;;2.75;;
76113;SDS011;64845;53.086;5.834;2023-07-13T04:40:18;12.80;;;2.97;;
76113;SDS011;64845;53.086;5.834;2023-07-13T04:42:45;8.98;;;2.42;;
76113;SDS011;64845;53.086;5.834;2023-07-13T04:45:12;12.80;;;3.05;;
76113;SDS011;64845;53.086;5.834;2023-07-13T04:47:38;12.07;;;2.90;;
76113;SDS011;64845;53.086;5.834;2023-07-13T04:50:04;13.60;;;2.58;;
76113;SDS011;64845;53.086;5.834;2023-07-13T04:52:30;10.90;;;2.35;;
76113;SDS011;64845;53.086;5.834;2023-07-13T04:54:55;17.63;;;2.97;;
76113;SDS011;64845;53.086;5.834;2023-07-13T04:57:21;17.00;;;3.20;;
76113;SDS011;64845;53.086;5.834;2023-07-13T04:59:46;13.05;;;2.67;;
76113;SDS011;64845;53.086;5.834;2023-07-13T05:02:11;7.60;;;2.38;;
76113;SDS011;64845;53.086;5.834;2023-07-13T05:04:37;11.07;;;2.53;;
76113;SDS011;64845;53.086;5.834;2023-07-13T05:07:02;18.25;;;2.90;;
76113;SDS011;64845;53.086;5.834;2023-07-13T05:09:28;12.95;;;2.78;;
76113;SDS011;64845;53.086;5.834;2023-07-13T05:11:53;15.95;;;3.20;;
76113;SDS011;64845;53.086;5.834;2023-07-13T05:14:19;8.45;;;2.45;;
76113;SDS011;64845;53.086;5.834;2023-07-13T05:16:44;12.93;;;2.47;;
76113;SDS011;64845;53.086;5.834;2023-07-13T05:19:09;12.25;;;2.80;;
76113;SDS011;64845;53.086;5.834;2023-07-13T05:21:35;13.63;;;3.13;;
76113;SDS011;64845;53.086;5.834;2023-07-13T05:24:01;15.95;;;3.10;;
76113;SDS011;64845;53.086;5.834;2023-07-13T05:26:26;15.18;;;2.78;;
76113;SDS011;64845;53.086;5.834;2023-07-13T05:28:52;13.73;;;2.83;;
76113;SDS011;64845;53.086;5.834;2023-07-13T05:31:17;15.30;;;4.30;;
76113;SDS011;64845;53.086;5.834;2023-07-13T05:33:42;15.88;;;3.05;;
76113;SDS011;64845;53.086;5.834;2023-07-13T05:36:08;11.10;;;2.83;;
76113;SDS011;64845;53.086;5.834;2023-07-13T05:38:33;13.70;;;3.10;;
76113;SDS011;64845;53.086;5.834;2023-07-13T05:40:59;14.68;;;2.55;;
76113;SDS011;64845;53.086;5.834;2023-07-13T05:43:24;13.55;;;3.20;;
76113;SDS011;64845;53.086;5.834;2023-07-13T05:45:52;9.65;;;2.45;;
76113;SDS011;64845;53.086;5.834;2023-07-13T05:48:19;16.92;;;3.40;;
76113;SDS011;64845;53.086;5.834;2023-07-13T05:50:44;17.10;;;2.88;;
76113;SDS011;64845;53.086;5.834;2023-07-13T05:53:09;13.57;;;3.20;;
76113;SDS011;64845;53.086;5.834;2023-07-13T05:55:35;12.27;;;2.63;;
76113;SDS011;64845;53.086;5.834;2023-07-13T05:58:00;11.07;;;2.60;;
76113;SDS011;64845;53.086;5.834;2023-07-13T06:00:26;13.68;;;2.53;;
76113;SDS011;64845;53.086;5.834;2023-07-13T06:02:51;11.63;;;2.50;;
76113;SDS011;64845;53.086;5.834;2023-07-13T06:05:17;14.43;;;2.63;;
76113;SDS011;64845;53.086;5.834;2023-07-13T06:07:42;11.57;;;2.72;;
76113;SDS011;64845;53.086;5.834;2023-07-13T06:10:08;12.10;;;2.85;;
76113;SDS011;64845;53.086;5.834;2023-07-13T06:12:33;10.55;;;2.83;;
76113;SDS011;64845;53.086;5.834;2023-07-13T06:14:59;11.55;;;2.65;;
76113;SDS011;64845;53.086;5.834;2023-07-13T06:17:24;13.93;;;2.88;;
76113;SDS011;64845;53.086;5.834;2023-07-13T06:19:50;13.95;;;3.30;;
76113;SDS011;64845;53.086;5.834;2023-07-13T06:22:15;16.52;;;3.20;;
76113;SDS011;64845;53.086;5.834;2023-07-13T06:24:40;12.00;;;2.90;;
76113;SDS011;64845;53.086;5.834;2023-07-13T06:27:06;13.60;;;2.85;;
76113;SDS011;64845;53.086;5.834;2023-07-13T06:29:31;13.13;;;2.40;;
76113;SDS011;64845;53.086;5.834;2023-07-13T06:31:57;16.95;;;3.10;;
76113;SDS011;64845;53.086;5.834;2023-07-13T06:34:22;9.50;;;3.10;;
76113;SDS011;64845;53.086;5.834;2023-07-13T06:36:48;10.93;;;2.90;;
76113;SDS011;64845;53.086;5.834;2023-07-13T06:39:13;11.60;;;2.63;;
76113;SDS011;64845;53.086;5.834;2023-07-13T06:41:39;11.93;;;2.33;;
76113;SDS011;64845;53.086;5.834;2023-07-13T06:44:05;10.52;;;2.40;;
76113;SDS011;64845;53.086;5.834;2023-07-13T06:46:31;7.20;;;2.20;;
76113;SDS011;64845;53.086;5.834;2023-07-13T06:48:57;9.18;;;2.83;;
76113;SDS011;64845;53.086;5.834;2023-07-13T06:51:22;10.38;;;2.30;;
76113;SDS011;64845;53.086;5.834;2023-07-13T06:53:48;10.70;;;2.35;;
76113;SDS011;64845;53.086;5.834;2023-07-13T06:56:14;12.95;;;2.40;;
76113;SDS011;64845;53.086;5.834;2023-07-13T06:58:39;8.30;;;2.03;;
76113;SDS011;64845;53.086;5.834;2023-07-13T07:01:05;17.17;;;2.95;;
76113;SDS011;64845;53.086;5.834;2023-07-13T07:03:30;10.88;;;2.20;;
76113;SDS011;64845;53.086;5.834;2023-07-13T07:08:45;9.02;;;2.20;;
76113;SDS011;64845;53.086;5.834;2023-07-13T07:11:14;11.13;;;2.13;;
76113;SDS011;64845;53.086;5.834;2023-07-13T07:13:41;11.50;;;2.45;;
76113;SDS011;64845;53.086;5.834;2023-07-13T07:16:07;9.55;;;2.20;;
76113;SDS011;64845;53.086;5.834;2023-07-13T07:18:33;7.78;;;2.00;;
76113;SDS011;64845;53.086;5.834;2023-07-13T07:20:59;10.20;;;2.40;;
76113;SDS011;64845;53.086;5.834;2023-07-13T07:23:25;11.77;;;2.10;;
76113;SDS011;64845;53.086;5.834;2023-07-13T07:25:50;13.80;;;2.30;;
76113;SDS011;64845;53.086;5.834;2023-07-13T07:28:16;7.10;;;2.40;;
76113;SDS011;64845;53.086;5.834;2023-07-13T07:30:45;8.95;;;2.35;;
76113;SDS011;64845;53.086;5.834;2023-07-13T07:33:11;13.27;;;2.72;;
76113;SDS011;64845;53.086;5.834;2023-07-13T07:35:37;9.10;;;2.33;;
76113;SDS011;64845;53.086;5.834;2023-07-13T07:38:02;8.10;;;2.03;;
76113;SDS011;64845;53.086;5.834;2023-07-13T07:40:28;7.03;;;2.03;;
76113;SDS011;64845;53.086;5.834;2023-07-13T07:42:54;6.30;;;1.85;;
76113;SDS011;64845;53.086;5.834;2023-07-13T07:45:20;6.05;;;1.60;;
76113;SDS011;64845;53.086;5.834;2023-07-13T07:47:46;6.65;;;1.75;;
76113;SDS011;64845;53.086;5.834;2023-07-13T07:50:11;12.93;;;2.47;;
76113;SDS011;64845;53.086;5.834;2023-07-13T07:52:37;10.52;;;2.40;;
76113;SDS011;64845;53.086;5.834;2023-07-13T07:55:03;5.95;;;1.85;;
76113;SDS011;64845;53.086;5.834;2023-07-13T07:57:29;7.35;;;1.95;;
76113;SDS011;64845;53.086;5.834;2023-07-13T07:59:55;7.55;;;1.70;;
76113;SDS011;64845;53.086;5.834;2023-07-13T08:02:20;9.45;;;2.17;;
76113;SDS011;64845;53.086;5.834;2023-07-13T08:04:46;7.00;;;1.90;;
76113;SDS011;64845;53.086;5.834;2023-07-13T08:07:11;7.35;;;1.95;;
76113;SDS011;64845;53.086;5.834;2023-07-13T08:09:36;6.60;;;2.10;;
76113;SDS011;64845;53.086;5.834;2023-07-13T08:12:02;6.50;;;1.80;;
76113;SDS011;64845;53.086;5.834;2023-07-13T08:14:27;4.70;;;1.90;;
76113;SDS011;64845;53.086;5.834;2023-07-13T08:16:53;8.05;;;2.22;;
76113;SDS011;64845;53.086;5.834;2023-07-13T08:19:18;6.57;;;2.20;;
76113;SDS011;64845;53.086;5.834;2023-07-13T08:21:44;9.68;;;2.65;;
76113;SDS011;64845;53.086;5.834;2023-07-13T08:24:09;9.10;;;2.22;;
76113;SDS011;64845;53.086;5.834;2023-07-13T08:26:35;6.05;;;1.77;;
76113;SDS011;64845;53.086;5.834;2023-07-13T08:29:00;4.72;;;1.75;;
76113;SDS011;64845;53.086;5.834;2023-07-13T08:31:26;10.90;;;2.17;;
76113;SDS011;64845;53.086;5.834;2023-07-13T08:33:51;14.63;;;2.20;;
76113;SDS011;64845;53.086;5.834;2023-07-13T08:36:17;6.78;;;1.70;;
76113;SDS011;64845;53.086;5.834;2023-07-13T08:38:42;5.63;;;1.85;;
76113;SDS011;64845;53.086;5.834;2023-07-13T08:41:15;4.68;;;1.50;;
76113;SDS011;64845;53.086;5.834;2023-07-13T08:43:49;4.90;;;1.58;;
76113;SDS011;64845;53.086;5.834;2023-07-13T08:48:52;4.85;;;1.60;;
76113;SDS011;64845;53.086;5.834;2023-07-13T08:54:03;8.13;;;1.80;;
76113;SDS011;64845;53.086;5.834;2023-07-13T08:56:35;5.18;;;1.60;;
76113;SDS011;64845;53.086;5.834;2023-07-13T08:59:02;9.15;;;1.60;;
76113;SDS011;64845;53.086;5.834;2023-07-13T09:04:11;4.82;;;1.30;;
76113;SDS011;64845;53.086;5.834;2023-07-13T09:06:55;2.75;;;1.20;;
76113;SDS011;64845;53.086;5.834;2023-07-13T09:12:22;4.20;;;1.50;;
76113;SDS011;64845;53.086;5.834;2023-07-13T09:14:55;4.32;;;1.42;;
76113;SDS011;64845;53.086;5.834;2023-07-13T09:17:30;5.22;;;1.90;;
76113;SDS011;64845;53.086;5.834;2023-07-13T09:20:30;4.25;;;1.33;;
76113;SDS011;64845;53.086;5.834;2023-07-13T09:22:52;5.00;;;1.42;;
76113;SDS011;64845;53.086;5.834;2023-07-13T09:25:30;8.18;;;1.50;;
76113;SDS011;64845;53.086;5.834;2023-07-13T09:28:00;3.17;;;1.50;;
76113;SDS011;64845;53.086;5.834;2023-07-13T09:30:36;3.78;;;1.20;;
76113;SDS011;64845;53.086;5.834;2023-07-13T09:33:09;6.10;;;1.40;;
76113;SDS011;64845;53.086;5.834;2023-07-13T09:35:35;5.60;;;1.60;;
76113;SDS011;64845;53.086;5.834;2023-07-13T09:38:13;4.85;;;1.40;;
76113;SDS011;64845;53.086;5.834;2023-07-13T09:43:07;5.43;;;1.50;;
76113;SDS011;64845;53.086;5.834;2023-07-13T09:45:38;3.95;;;1.13;;
76113;SDS011;64845;53.086;5.834;2023-07-13T09:48:11;3.13;;;1.17;;
76113;SDS011;64845;53.086;5.834;2023-07-13T09:50:38;2.88;;;1.20;;
76113;SDS011;64845;53.086;5.834;2023-07-13T09:53:04;5.15;;;1.20;;
76113;SDS011;64845;53.086;5.834;2023-07-13T09:55:37;7.85;;;1.38;;
76113;SDS011;64845;53.086;5.834;2023-07-13T09:58:09;3.67;;;1.20;;
76113;SDS011;64845;53.086;5.834;2023-07-13T10:00:37;4.93;;;1.88;;
76113;SDS011;64845;53.086;5.834;2023-07-13T10:03:16;6.07;;;1.33;;
76113;SDS011;64845;53.086;5.834;2023-07-13T10:05:44;6.03;;;1.40;;
76113;SDS011;64845;53.086;5.834;2023-07-13T10:13:56;5.95;;;1.30;;
76113;SDS011;64845;53.086;5.834;2023-07-13T10:16:24;4.03;;;1.63;;
76113;SDS011;64845;53.086;5.834;2023-07-13T10:18:55;6.38;;;1.30;;
76113;SDS011;64845;53.086;5.834;2023-07-13T10:21:27;3.60;;;1.35;;
76113;SDS011;64845;53.086;5.834;2023-07-13T10:24:00;8.15;;;2.03;;
76113;SDS011;64845;53.086;5.834;2023-07-13T10:26:31;6.00;;;1.70;;
76113;SDS011;64845;53.086;5.834;2023-07-13T10:29:02;5.13;;;1.55;;
76113;SDS011;64845;53.086;5.834;2023-07-13T10:31:32;8.80;;;1.80;;
76113;SDS011;64845;53.086;5.834;2023-07-13T10:33:59;3.45;;;1.60;;
76113;SDS011;64845;53.086;5.834;2023-07-13T10:38:57;4.93;;;1.35;;
76113;SDS011;64845;53.086;5.834;2023-07-13T10:41:26;3.65;;;1.40;;
76113;SDS011;64845;53.086;5.834;2023-07-13T10:43:55;12.88;;;1.83;;
76113;SDS011;64845;53.086;5.834;2023-07-13T10:46:23;5.55;;;1.85;;
76113;SDS011;64845;53.086;5.834;2023-07-13T10:48:56;6.25;;;1.50;;
76113;SDS011;64845;53.086;5.834;2023-07-13T10:51:24;5.68;;;1.60;;
76113;SDS011;64845;53.086;5.834;2023-07-13T10:56:44;6.07;;;1.58;;
76113;SDS011;64845;53.086;5.834;2023-07-13T11:02:26;7.15;;;1.70;;
76113;SDS011;64845;53.086;5.834;2023-07-13T11:04:38;6.22;;;1.88;;
76113;SDS011;64845;53.086;5.834;2023-07-13T11:09:58;5.55;;;1.95;;
76113;SDS011;64845;53.086;5.834;2023-07-13T11:20:23;7.88;;;1.90;;
76113;SDS011;64845;53.086;5.834;2023-07-13T11:25:38;6.25;;;1.30;;
76113;SDS011;64845;53.086;5.834;2023-07-13T11:30:49;7.55;;;1.60;;
76113;SDS011;64845;53.086;5.834;2023-07-13T11:36:04;3.22;;;1.30;;
76113;SDS011;64845;53.086;5.834;2023-07-13T11:38:33;7.57;;;1.75;;
76113;SDS011;64845;53.086;5.834;2023-07-13T11:41:01;5.55;;;1.50;;
76113;SDS011;64845;53.086;5.834;2023-07-13T11:43:29;4.93;;;1.40;;
76113;SDS011;64845;53.086;5.834;2023-07-13T11:45:55;7.13;;;1.52;;
76113;SDS011;64845;53.086;5.834;2023-07-13T11:48:26;5.57;;;1.70;;
76113;SDS011;64845;53.086;5.834;2023-07-13T11:51:01;7.30;;;1.60;;
76113;SDS011;64845;53.086;5.834;2023-07-13T11:53:32;5.57;;;1.63;;
76113;SDS011;64845;53.086;5.834;2023-07-13T11:56:05;5.65;;;1.52;;
76113;SDS011;64845;53.086;5.834;2023-07-13T11:58:31;3.45;;;1.40;;
76113;SDS011;64845;53.086;5.834;2023-07-13T12:01:00;6.05;;;1.55;;
76113;SDS011;64845;53.086;5.834;2023-07-13T12:03:29;10.77;;;1.88;;
76113;SDS011;64845;53.086;5.834;2023-07-13T12:05:58;3.50;;;1.02;;
76113;SDS011;64845;53.086;5.834;2023-07-13T12:08:26;6.00;;;1.58;;
76113;SDS011;64845;53.086;5.834;2023-07-13T12:10:59;7.38;;;1.60;;
76113;SDS011;64845;53.086;5.834;2023-07-13T12:13:34;8.15;;;1.83;;
76113;SDS011;64845;53.086;5.834;2023-07-13T12:16:01;5.13;;;1.60;;
76113;SDS011;64845;53.086;5.834;2023-07-13T12:18:30;6.57;;;1.55;;
76113;SDS011;64845;53.086;5.834;2023-07-13T12:20:57;9.40;;;1.77;;
76113;SDS011;64845;53.086;5.834;2023-07-13T12:23:25;9.02;;;1.50;;
76113;SDS011;64845;53.086;5.834;2023-07-13T12:25:55;6.70;;;1.95;;
76113;SDS011;64845;53.086;5.834;2023-07-13T12:28:30;8.73;;;1.63;;
76113;SDS011;64845;53.086;5.834;2023-07-13T12:31:00;4.60;;;1.80;;
76113;SDS011;64845;53.086;5.834;2023-07-13T12:33:28;10.45;;;1.70;;
76113;SDS011;64845;53.086;5.834;2023-07-13T12:35:53;6.47;;;1.98;;
76113;SDS011;64845;53.086;5.834;2023-07-13T12:38:19;12.98;;;2.28;;
76113;SDS011;64845;53.086;5.834;2023-07-13T12:40:49;7.22;;;1.80;;
76113;SDS011;64845;53.086;5.834;2023-07-13T12:43:15;7.07;;;2.10;;
76113;SDS011;64845;53.086;5.834;2023-07-13T12:48:41;6.95;;;2.10;;
76113;SDS011;64845;53.086;5.834;2023-07-13T12:51:10;8.73;;;1.85;;
76113;SDS011;64845;53.086;5.834;2023-07-13T12:53:41;10.65;;;1.80;;
76113;SDS011;64845;53.086;5.834;2023-07-13T12:56:08;10.63;;;2.10;;
76113;SDS011;64845;53.086;5.834;2023-07-13T12:58:43;12.93;;;2.17;;
76113;SDS011;64845;53.086;5.834;2023-07-13T13:01:11;6.07;;;1.77;;
76113;SDS011;64845;53.086;5.834;2023-07-13T13:03:39;7.65;;;2.15;;
76113;SDS011;64845;53.086;5.834;2023-07-13T13:08:43;5.50;;;1.80;;
76113;SDS011;64845;53.086;5.834;2023-07-13T13:11:10;5.38;;;1.63;;
76113;SDS011;64845;53.086;5.834;2023-07-13T13:13:35;8.30;;;1.60;;
76113;SDS011;64845;53.086;5.834;2023-07-13T13:16:23;9.48;;;1.60;;
76113;SDS011;64845;53.086;5.834;2023-07-13T13:19:10;10.98;;;1.70;;
76113;SDS011;64845;53.086;5.834;2023-07-13T13:21:37;5.20;;;1.45;;
76113;SDS011;64845;53.086;5.834;2023-07-13T13:24:04;7.05;;;1.80;;
76113;SDS011;64845;53.086;5.834;2023-07-13T13:26:35;5.13;;;1.70;;
76113;SDS011;64845;53.086;5.834;2023-07-13T13:29:01;7.55;;;1.80;;
76113;SDS011;64845;53.086;5.834;2023-07-13T13:31:29;5.50;;;2.00;;
76113;SDS011;64845;53.086;5.834;2023-07-13T13:33:54;9.27;;;2.35;;
76113;SDS011;64845;53.086;5.834;2023-07-13T13:36:22;8.23;;;1.95;;
76113;SDS011;64845;53.086;5.834;2023-07-13T13:38:48;9.25;;;2.30;;
76113;SDS011;64845;53.086;5.834;2023-07-13T13:41:15;8.50;;;2.08;;
76113;SDS011;64845;53.086;5.834;2023-07-13T13:43:41;7.50;;;1.90;;
76113;SDS011;64845;53.086;5.834;2023-07-13T13:46:13;11.85;;;2.35;;
76113;SDS011;64845;53.086;5.834;2023-07-13T13:48:43;7.28;;;2.00;;
76113;SDS011;64845;53.086;5.834;2023-07-13T13:51:14;8.43;;;2.33;;
76113;SDS011;64845;53.086;5.834;2023-07-13T13:53:42;10.88;;;1.80;;
76113;SDS011;64845;53.086;5.834;2023-07-13T13:56:08;10.38;;;2.20;;
76113;SDS011;64845;53.086;5.834;2023-07-13T13:58:33;5.78;;;1.67;;
76113;SDS011;64845;53.086;5.834;2023-07-13T14:00:59;6.93;;;1.70;;
76113;SDS011;64845;53.086;5.834;2023-07-13T14:03:25;7.30;;;2.20;;
76113;SDS011;64845;53.086;5.834;2023-07-13T14:05:50;6.03;;;1.20;;
76113;SDS011;64845;53.086;5.834;2023-07-13T14:08:17;6.72;;;2.10;;
76113;SDS011;64845;53.086;5.834;2023-07-13T14:10:44;6.93;;;1.90;;
76113;SDS011;64845;53.086;5.834;2023-07-13T14:13:19;5.20;;;1.63;;
76113;SDS011;64845;53.086;5.834;2023-07-13T14:15:48;9.48;;;2.00;;
76113;SDS011;64845;53.086;5.834;2023-07-13T14:18:14;9.13;;;1.80;;
76113;SDS011;64845;53.086;5.834;2023-07-13T14:20:46;11.40;;;2.00;;
76113;SDS011;64845;53.086;5.834;2023-07-13T14:23:13;7.38;;;1.88;;
76113;SDS011;64845;53.086;5.834;2023-07-13T14:25:40;6.65;;;2.22;;
76113;SDS011;64845;53.086;5.834;2023-07-13T14:28:27;5.85;;;2.10;;
76113;SDS011;64845;53.086;5.834;2023-07-13T14:30:52;7.40;;;2.08;;
76113;SDS011;64845;53.086;5.834;2023-07-13T14:33:19;5.35;;;1.67;;
76113;SDS011;64845;53.086;5.834;2023-07-13T14:35:45;7.93;;;1.67;;
76113;SDS011;64845;53.086;5.834;2023-07-13T14:38:11;11.20;;;2.03;;
76113;SDS011;64845;53.086;5.834;2023-07-13T14:40:40;5.00;;;1.58;;
76113;SDS011;64845;53.086;5.834;2023-07-13T14:43:09;10.00;;;2.20;;
76113;SDS011;64845;53.086;5.834;2023-07-13T14:45:42;8.82;;;1.90;;
76113;SDS011;64845;53.086;5.834;2023-07-13T14:48:14;7.28;;;1.90;;
76113;SDS011;64845;53.086;5.834;2023-07-13T14:50:42;5.20;;;2.00;;
76113;SDS011;64845;53.086;5.834;2023-07-13T14:53:11;6.72;;;1.90;;
76113;SDS011;64845;53.086;5.834;2023-07-13T14:55:37;7.35;;;2.13;;
76113;SDS011;64845;53.086;5.834;2023-07-13T14:58:03;7.00;;;1.88;;
76113;SDS011;64845;53.086;5.834;2023-07-13T15:00:28;4.82;;;1.55;;
76113;SDS011;64845;53.086;5.834;2023-07-13T15:02:55;8.75;;;2.03;;
76113;SDS011;64845;53.086;5.834;2023-07-13T15:05:26;7.45;;;2.30;;
76113;SDS011;64845;53.086;5.834;2023-07-13T15:07:58;6.72;;;2.08;;
76113;SDS011;64845;53.086;5.834;2023-07-13T15:10:26;7.43;;;2.05;;
76113;SDS011;64845;53.086;5.834;2023-07-13T15:12:59;6.28;;;1.98;;
76113;SDS011;64845;53.086;5.834;2023-07-13T15:15:27;4.50;;;1.60;;
76113;SDS011;64845;53.086;5.834;2023-07-13T15:17:57;9.05;;;2.08;;
76113;SDS011;64845;53.086;5.834;2023-07-13T15:20:27;5.22;;;2.05;;
76113;SDS011;64845;53.086;5.834;2023-07-13T15:23:00;8.80;;;2.47;;
76113;SDS011;64845;53.086;5.834;2023-07-13T15:25:27;9.95;;;2.25;;
76113;SDS011;64845;53.086;5.834;2023-07-13T15:27:55;7.40;;;1.83;;
76113;SDS011;64845;53.086;5.834;2023-07-13T15:30:21;7.13;;;1.70;;
76113;SDS011;64845;53.086;5.834;2023-07-13T15:32:50;10.68;;;2.00;;
76113;SDS011;64845;53.086;5.834;2023-07-13T15:35:19;8.63;;;2.03;;
76113;SDS011;64845;53.086;5.834;2023-07-13T15:37:47;8.90;;;2.00;;
76113;SDS011;64845;53.086;5.834;2023-07-13T15:40:13;6.35;;;1.98;;